createdAt,value
2023-05-01T00:00:00.603Z,71.8
2023-05-01T00:01:00.566Z,71.8
2023-05-01T00:02:00.581Z,71.6
2023-05-01T00:03:00.731Z,71.4
2023-05-01T00:04:00.752Z,71.4
2023-05-01T00:05:01.112Z,71.4
2023-05-01T00:06:01.328Z,71.2
2023-05-01T00:07:00.540Z,71.0
2023-05-01T00:08:00.536Z,70.8
2023-05-01T00:09:00.542Z,70.7
2023-05-01T00:10:00.625Z,69.7
2023-05-01T00:11:04.149Z,69.8
2023-05-01T00:12:00.544Z,70.2
2023-05-01T00:13:00.559Z,70.2
2023-05-01T00:14:00.574Z,70.1
2023-05-01T00:15:00.589Z,70.0
2023-05-01T00:16:00.599Z,70.0
2023-05-01T00:17:00.541Z,69.8
2023-05-01T00:18:00.602Z,69.5
2023-05-01T00:19:00.524Z,69.4
2023-05-01T00:20:00.595Z,69.2
2023-05-01T00:21:00.557Z,68.6
2023-05-01T00:22:00.575Z,68.6
2023-05-01T00:23:00.518Z,68.7
2023-05-01T00:24:00.569Z,68.7
2023-05-01T00:25:00.574Z,68.7
2023-05-01T00:26:00.560Z,68.6
2023-05-01T00:27:00.581Z,68.5
2023-05-01T00:28:00.541Z,68.2
2023-05-01T00:29:00.517Z,68.4
2023-05-01T00:30:00.606Z,68.4
2023-05-01T00:31:00.598Z,68.3
2023-05-01T00:32:00.650Z,68.2
2023-05-01T00:33:01.199Z,68.1
2023-05-01T00:34:00.737Z,68.1
2023-05-01T00:35:00.569Z,67.9
2023-05-01T00:36:00.583Z,67.7
2023-05-01T00:37:00.591Z,67.6
2023-05-01T00:38:00.585Z,67.7
2023-05-01T00:39:00.563Z,67.8
2023-05-01T00:40:00.613Z,67.7
2023-05-01T00:41:00.580Z,67.5
2023-05-01T00:42:00.550Z,67.5
2023-05-01T00:43:00.503Z,67.4
2023-05-01T00:44:00.840Z,67.6
2023-05-01T00:45:00.687Z,67.4
2023-05-01T00:46:00.730Z,67.4
2023-05-01T00:47:00.692Z,67.3
2023-05-01T00:48:00.732Z,67.2
2023-05-01T00:49:00.617Z,67.2
2023-05-01T00:50:01.206Z,67.2
2023-05-01T00:51:03.675Z,67.2
2023-05-01T00:52:00.601Z,67.2
2023-05-01T00:53:01.049Z,67.0
2023-05-01T00:54:00.600Z,67.0
2023-05-01T00:55:00.709Z,67.2
2023-05-01T00:56:00.794Z,67.2
2023-05-01T00:57:00.633Z,67.1
2023-05-01T00:58:00.595Z,67.0
2023-05-01T00:59:00.582Z,67.0
2023-05-01T01:00:00.537Z,67.0
2023-05-01T01:01:01.012Z,66.9
2023-05-01T01:02:00.721Z,66.9
2023-05-01T01:03:00.576Z,66.9
2023-05-01T01:04:00.602Z,66.9
2023-05-01T01:05:00.553Z,66.9
2023-05-01T01:06:07.269Z,66.9
2023-05-01T01:07:03.990Z,66.6
2023-05-01T01:08:03.905Z,66.6
2023-05-01T01:09:10.408Z,66.7
2023-05-01T01:10:09.786Z,66.7
2023-05-01T01:11:10.400Z,66.7
2023-05-01T01:12:07.906Z,66.7
2023-05-01T01:13:06.272Z,66.7
2023-05-01T01:14:10.409Z,66.6
2023-05-01T01:15:07.791Z,66.6
2023-05-01T01:16:10.432Z,66.7
2023-05-01T01:17:08.855Z,66.4
2023-05-01T01:18:01.637Z,66.4
2023-05-01T01:19:00.566Z,66.4
2023-05-01T01:20:09.311Z,66.4
2023-05-01T01:21:10.382Z,66.4
2023-05-01T01:22:04.653Z,66.3
2023-05-01T01:23:10.380Z,66.3
2023-05-01T01:24:10.392Z,66.5
2023-05-01T01:25:10.401Z,66.6
2023-05-01T01:26:03.637Z,66.7
2023-05-01T01:27:10.403Z,66.7
2023-05-01T01:28:10.402Z,66.8
2023-05-01T01:29:10.443Z,66.9
2023-05-01T01:30:00.515Z,67.2
2023-05-01T01:31:01.670Z,68.0
2023-05-01T01:32:10.431Z,68.2
2023-05-01T01:33:10.524Z,68.7
2023-05-01T01:34:00.508Z,68.5
2023-05-01T01:35:02.026Z,68.7
2023-05-01T01:36:05.117Z,68.6
2023-05-01T01:37:00.534Z,68.3
2023-05-01T01:38:04.144Z,68.0
2023-05-01T01:39:04.680Z,68.0
2023-05-01T01:40:08.253Z,68.0
2023-05-01T01:41:10.392Z,68.1
2023-05-01T01:42:04.456Z,68.0
2023-05-01T01:43:04.309Z,67.9
2023-05-01T01:44:04.116Z,67.9
2023-05-01T01:45:04.148Z,67.9
2023-05-01T01:46:04.179Z,67.9
2023-05-01T01:47:03.897Z,67.8
2023-05-01T01:48:02.026Z,67.9
2023-05-01T01:49:05.456Z,67.8
2023-05-01T01:50:02.354Z,67.8
2023-05-01T01:51:01.787Z,67.9
2023-05-01T01:52:01.430Z,68.0
2023-05-01T01:53:01.237Z,67.9
2023-05-01T01:54:01.122Z,67.9
2023-05-01T01:55:04.100Z,67.9
2023-05-01T01:56:03.715Z,68.0
2023-05-01T01:57:02.171Z,67.9
2023-05-01T01:58:01.337Z,67.9
2023-05-01T01:59:00.884Z,68.0
2023-05-01T02:00:00.773Z,68.0
2023-05-01T02:01:00.816Z,68.1
2023-05-01T02:02:01.641Z,68.2
2023-05-01T02:03:01.334Z,68.2
2023-05-01T02:04:00.914Z,68.3
2023-05-01T02:05:00.830Z,68.4
2023-05-01T02:06:00.944Z,68.4
2023-05-01T02:07:01.678Z,68.3
2023-05-01T02:08:01.279Z,68.3
2023-05-01T02:09:01.605Z,68.4
2023-05-01T02:10:02.295Z,68.4
2023-05-01T02:11:02.265Z,68.4
2023-05-01T02:12:02.597Z,68.5
2023-05-01T02:13:01.524Z,68.7
2023-05-01T02:14:00.803Z,68.7
2023-05-01T02:15:00.876Z,68.9
2023-05-01T02:16:01.641Z,68.8
2023-05-01T02:17:01.457Z,68.8
2023-05-01T02:18:02.137Z,68.8
2023-05-01T02:19:01.672Z,68.8
2023-05-01T02:20:01.386Z,68.8
2023-05-01T02:21:01.858Z,68.8
2023-05-01T02:22:01.425Z,68.8
2023-05-01T02:23:02.447Z,68.7
2023-05-01T02:24:01.002Z,68.8
2023-05-01T02:25:01.913Z,68.8
2023-05-01T02:26:02.186Z,68.8
2023-05-01T02:27:02.870Z,68.8
2023-05-01T02:28:02.878Z,68.8
2023-05-01T02:29:00.533Z,68.8
2023-05-01T02:30:00.599Z,69.4
2023-05-01T02:31:00.561Z,69.5
2023-05-01T02:32:00.672Z,69.7
2023-05-01T02:33:00.712Z,70.0
2023-05-01T02:34:00.590Z,70.2
2023-05-01T02:35:00.554Z,70.3
2023-05-01T02:36:00.567Z,70.7
2023-05-01T02:37:01.083Z,70.3
2023-05-01T02:38:00.577Z,70.2
2023-05-01T02:39:01.079Z,70.3
2023-05-01T02:40:01.575Z,70.1
2023-05-01T02:41:00.958Z,70.0
2023-05-01T02:42:01.330Z,70.0
2023-05-01T02:43:03.937Z,70.1
2023-05-01T02:44:01.387Z,70.0
2023-05-01T02:45:02.429Z,70.0
2023-05-01T02:46:02.131Z,70.1
2023-05-01T02:47:01.906Z,70.1
2023-05-01T02:48:01.082Z,70.2
2023-05-01T02:49:01.706Z,70.2
2023-05-01T02:50:00.679Z,70.2
2023-05-01T02:51:01.017Z,70.2
2023-05-01T02:52:01.230Z,70.2
2023-05-01T02:53:00.864Z,70.2
2023-05-01T02:54:00.910Z,70.2
2023-05-01T02:55:00.866Z,70.3
2023-05-01T02:56:01.521Z,70.2
2023-05-01T02:57:02.578Z,70.1
2023-05-01T02:58:00.572Z,70.0
2023-05-01T02:59:00.554Z,70.1
2023-05-01T03:00:00.551Z,70.1
2023-05-01T03:01:00.586Z,70.0
2023-05-01T03:02:00.627Z,70.0
2023-05-01T03:03:00.576Z,70.1
2023-05-01T03:04:00.643Z,70.1
2023-05-01T03:05:00.597Z,70.1
2023-05-01T03:06:00.682Z,70.1
2023-05-01T03:07:00.527Z,69.9
2023-05-01T03:08:00.567Z,69.9
2023-05-01T03:09:00.543Z,70.0
2023-05-01T03:10:01.464Z,70.0
2023-05-01T03:11:03.464Z,70.1
2023-05-01T03:12:00.556Z,70.1
2023-05-01T03:13:00.573Z,70.0
2023-05-01T03:14:00.579Z,69.9
2023-05-01T03:15:01.014Z,70.0
2023-05-01T03:16:00.905Z,70.0
2023-05-01T03:17:00.634Z,69.9
2023-05-01T03:18:00.649Z,69.8
2023-05-01T03:19:00.534Z,69.8
2023-05-01T03:20:00.559Z,69.9
2023-05-01T03:21:00.626Z,69.9
2023-05-01T03:22:00.570Z,69.9
2023-05-01T03:23:00.571Z,69.8
2023-05-01T03:24:00.548Z,69.8
2023-05-01T03:25:00.589Z,69.8
2023-05-01T03:26:00.585Z,69.9
2023-05-01T03:27:00.550Z,69.9
2023-05-01T03:28:00.591Z,69.9
2023-05-01T03:29:00.538Z,69.9
2023-05-01T03:30:00.634Z,69.9
2023-05-01T03:31:00.639Z,69.9
2023-05-01T03:32:00.613Z,69.9
2023-05-01T03:33:00.800Z,69.9
2023-05-01T03:34:00.552Z,69.9
2023-05-01T03:35:00.587Z,70.0
2023-05-01T03:36:01.612Z,70.0
2023-05-01T03:37:00.510Z,69.8
2023-05-01T03:38:00.745Z,69.8
2023-05-01T03:39:00.582Z,69.7
2023-05-01T03:40:00.569Z,69.8
2023-05-01T03:41:00.553Z,69.7
2023-05-01T03:42:00.512Z,69.8
2023-05-01T03:43:00.557Z,69.7
2023-05-01T03:44:00.557Z,69.7
2023-05-01T03:45:00.541Z,69.7
2023-05-01T03:46:00.591Z,70.0
2023-05-01T03:47:00.537Z,69.8
2023-05-01T03:48:00.556Z,69.8
2023-05-01T03:49:00.580Z,70.0
2023-05-01T03:50:00.821Z,70.2
2023-05-01T03:51:00.523Z,70.3
2023-05-01T03:52:00.548Z,70.3
2023-05-01T03:53:00.564Z,70.3
2023-05-01T03:54:00.536Z,70.2
2023-05-01T03:55:00.554Z,70.2
2023-05-01T03:56:00.567Z,70.2
2023-05-01T03:57:00.568Z,70.1
2023-05-01T03:58:00.520Z,70.1
2023-05-01T03:59:00.569Z,70.1
2023-05-01T04:00:00.541Z,70.1
2023-05-01T04:01:00.557Z,70.1
2023-05-01T04:02:00.587Z,70.2
2023-05-01T04:03:00.745Z,70.2
2023-05-01T04:04:01.057Z,70.2
2023-05-01T04:05:00.544Z,70.4
2023-05-01T04:06:00.541Z,70.5
2023-05-01T04:07:00.623Z,70.3
2023-05-01T04:08:00.570Z,70.5
2023-05-01T04:09:00.546Z,70.5
2023-05-01T04:10:00.546Z,70.5
2023-05-01T04:11:00.718Z,70.6
2023-05-01T04:12:00.651Z,70.6
2023-05-01T04:13:00.560Z,70.5
2023-05-01T04:14:00.591Z,70.4
2023-05-01T04:15:00.791Z,70.5
2023-05-01T04:16:00.605Z,70.7
2023-05-01T04:17:00.569Z,70.7
2023-05-01T04:18:00.595Z,70.9
2023-05-01T04:19:00.543Z,70.9
2023-05-01T04:20:00.571Z,71.1
2023-05-01T04:21:00.599Z,71.2
2023-05-01T04:22:00.567Z,71.3
2023-05-01T04:23:00.571Z,71.4
2023-05-01T04:24:00.558Z,71.4
2023-05-01T04:25:00.604Z,71.5
2023-05-01T04:26:00.535Z,71.5
2023-05-01T04:27:00.519Z,71.5
2023-05-01T04:28:00.535Z,71.5
2023-05-01T04:29:00.629Z,71.4
2023-05-01T04:30:00.893Z,71.5
2023-05-01T04:31:00.673Z,71.5
2023-05-01T04:32:00.654Z,71.6
2023-05-01T04:33:00.547Z,71.6
2023-05-01T04:34:00.666Z,71.5
2023-05-01T04:35:00.563Z,71.4
2023-05-01T04:36:00.558Z,71.5
2023-05-01T04:37:00.566Z,71.3
2023-05-01T04:38:00.536Z,71.3
2023-05-01T04:39:00.546Z,71.2
2023-05-01T04:40:00.550Z,71.2
2023-05-01T04:41:00.521Z,71.1
2023-05-01T04:42:00.646Z,71.1
2023-05-01T04:43:00.550Z,71.1
2023-05-01T04:44:00.561Z,71.1
2023-05-01T04:45:00.613Z,71.1
2023-05-01T04:46:02.033Z,71.1
2023-05-01T04:47:01.150Z,71.0
2023-05-01T04:48:00.565Z,71.0
2023-05-01T04:49:00.556Z,70.9
2023-05-01T04:50:00.563Z,70.8
2023-05-01T04:51:00.559Z,70.9
2023-05-01T04:52:00.534Z,71.1
2023-05-01T04:53:00.546Z,71.2
2023-05-01T04:54:00.568Z,71.1
2023-05-01T04:55:00.553Z,71.0
2023-05-01T04:56:00.606Z,71.0
2023-05-01T04:57:00.532Z,70.9
2023-05-01T04:58:00.498Z,70.8
2023-05-01T04:59:00.519Z,70.9
2023-05-01T05:00:00.682Z,71.0
2023-05-01T05:01:00.522Z,71.1
2023-05-01T05:02:00.573Z,71.2
2023-05-01T05:03:00.687Z,71.2
2023-05-01T05:04:00.821Z,71.3
2023-05-01T05:05:00.540Z,71.4
2023-05-01T05:06:00.623Z,71.5
2023-05-01T05:07:00.643Z,71.5
2023-05-01T05:08:00.544Z,71.4
2023-05-01T05:09:00.519Z,71.4
2023-05-01T05:10:00.538Z,71.5
2023-05-01T05:11:00.563Z,71.6
2023-05-01T05:12:00.635Z,71.8
2023-05-01T05:13:00.553Z,71.7
2023-05-01T05:14:00.565Z,71.7
2023-05-01T05:15:00.571Z,71.9
2023-05-01T05:16:00.688Z,71.9
2023-05-01T05:17:00.583Z,71.5
2023-05-01T05:18:00.652Z,71.5
2023-05-01T05:19:00.574Z,71.4
2023-05-01T05:20:00.551Z,71.4
2023-05-01T05:21:04.032Z,71.3
2023-05-01T05:22:02.021Z,71.3
2023-05-01T05:23:00.510Z,71.3
2023-05-01T05:24:00.545Z,71.4
2023-05-01T05:25:00.557Z,71.4
2023-05-01T05:26:00.887Z,71.4
2023-05-01T05:27:00.518Z,71.3
2023-05-01T05:28:00.570Z,71.3
2023-05-01T05:29:00.592Z,71.3
2023-05-01T05:30:00.593Z,71.3
2023-05-01T05:31:00.564Z,71.3
2023-05-01T05:32:00.558Z,71.2
2023-05-01T05:33:00.645Z,71.2
2023-05-01T05:34:00.521Z,71.2
2023-05-01T05:35:00.514Z,71.3
2023-05-01T05:36:00.502Z,71.1
2023-05-01T05:37:00.540Z,71.0
2023-05-01T05:38:00.594Z,71.3
2023-05-01T05:39:00.545Z,71.2
2023-05-01T05:40:00.597Z,70.7
2023-05-01T05:41:00.541Z,70.4
2023-05-01T05:42:00.545Z,70.3
2023-05-01T05:43:00.530Z,70.1
2023-05-01T05:44:00.558Z,69.6
2023-05-01T05:45:00.736Z,69.1
2023-05-01T05:46:00.610Z,69.1
2023-05-01T05:47:00.520Z,68.9
2023-05-01T05:48:00.628Z,67.9
2023-05-01T05:49:00.529Z,67.9
2023-05-01T05:50:00.610Z,68.0
2023-05-01T05:51:00.591Z,67.8
2023-05-01T05:52:00.568Z,67.6
2023-05-01T05:53:00.520Z,67.2
2023-05-01T05:54:00.557Z,66.9
2023-05-01T05:55:00.552Z,67.0
2023-05-01T05:56:00.549Z,66.6
2023-05-01T05:57:00.578Z,66.6
2023-05-01T05:58:00.554Z,66.2
2023-05-01T05:59:00.860Z,65.9
2023-05-01T06:00:00.541Z,65.1
2023-05-01T06:01:00.521Z,65.3
2023-05-01T06:02:00.676Z,64.6
2023-05-01T06:03:00.678Z,64.3
2023-05-01T06:04:00.516Z,63.6
2023-05-01T06:05:00.704Z,64.2
2023-05-01T06:06:01.000Z,64.1
2023-05-01T06:07:00.718Z,64.0
2023-05-01T06:08:00.531Z,62.8
2023-05-01T06:09:00.518Z,62.4
2023-05-01T06:10:00.580Z,61.4
2023-05-01T06:11:00.546Z,61.8
2023-05-01T06:12:00.578Z,61.9
2023-05-01T06:13:10.432Z,61.1
2023-05-01T06:14:00.569Z,60.8
2023-05-01T06:15:00.651Z,60.6
2023-05-01T06:16:00.612Z,59.5
2023-05-01T06:17:00.556Z,60.3
2023-05-01T06:18:00.598Z,59.6
2023-05-01T06:19:00.537Z,59.9
2023-05-01T06:20:00.580Z,59.7
2023-05-01T06:21:00.535Z,59.8
2023-05-01T06:22:00.612Z,60.0
2023-05-01T06:23:00.599Z,59.7
2023-05-01T06:24:00.719Z,60.0
2023-05-01T06:25:00.556Z,59.9
2023-05-01T06:26:00.541Z,59.6
2023-05-01T06:27:01.519Z,59.9
2023-05-01T06:28:00.608Z,59.5
2023-05-01T06:29:00.520Z,58.9
2023-05-01T06:30:00.615Z,58.3
2023-05-01T06:31:00.664Z,58.8
2023-05-01T06:32:00.609Z,58.7
2023-05-01T06:33:00.600Z,58.5
2023-05-01T06:34:00.613Z,58.2
2023-05-01T06:35:00.627Z,57.8
2023-05-01T06:36:00.522Z,56.8
2023-05-01T06:37:00.559Z,55.8
2023-05-01T06:38:00.546Z,53.5
2023-05-01T06:39:00.602Z,55.0
2023-05-01T06:40:00.714Z,53.5
2023-05-01T06:41:00.639Z,53.2
2023-05-01T06:42:00.641Z,52.2
2023-05-01T06:43:01.505Z,52.8
2023-05-01T06:44:00.653Z,52.5
2023-05-01T06:45:00.543Z,50.4
2023-05-01T06:46:00.658Z,50.9
2023-05-01T06:47:00.617Z,50.3
2023-05-01T06:48:00.634Z,48.8
2023-05-01T06:49:00.562Z,47.0
2023-05-01T06:50:02.904Z,46.4
2023-05-01T06:51:00.572Z,47.5
2023-05-01T06:52:00.635Z,45.5
2023-05-01T06:53:00.560Z,45.4
2023-05-01T06:54:00.525Z,45.7
2023-05-01T06:55:00.534Z,45.4
2023-05-01T06:56:00.539Z,45.1
2023-05-01T06:57:00.621Z,46.2
2023-05-01T06:58:02.684Z,44.9
2023-05-01T06:59:00.517Z,45.0
2023-05-01T07:00:00.561Z,45.5
2023-05-01T07:01:00.610Z,45.8
2023-05-01T07:02:00.533Z,45.0
2023-05-01T07:03:00.596Z,44.0
2023-05-01T07:04:00.584Z,42.7
2023-05-01T07:05:00.552Z,41.9
2023-05-01T07:06:00.608Z,42.8
2023-05-01T07:07:00.569Z,43.2
2023-05-01T07:08:01.787Z,42.0
2023-05-01T07:09:00.578Z,41.0
2023-05-01T07:10:00.786Z,40.8
2023-05-01T07:11:00.654Z,41.1
2023-05-01T07:12:00.709Z,41.4
2023-05-01T07:13:00.549Z,41.8
2023-05-01T07:14:00.499Z,40.5
2023-05-01T07:15:00.561Z,40.3
2023-05-01T07:16:00.578Z,40.3
2023-05-01T07:17:01.421Z,41.9
2023-05-01T07:18:00.573Z,41.1
2023-05-01T07:19:00.611Z,41.1
2023-05-01T07:20:00.635Z,40.9
2023-05-01T07:21:00.538Z,40.2
2023-05-01T07:22:00.580Z,39.6
2023-05-01T07:23:00.525Z,40.2
2023-05-01T07:24:00.528Z,38.9
2023-05-01T07:25:00.525Z,39.2
2023-05-01T07:26:00.533Z,39.1
2023-05-01T07:27:00.535Z,40.2
2023-05-01T07:28:00.579Z,39.2
2023-05-01T07:29:00.546Z,40.2
2023-05-01T07:30:01.826Z,39.6
2023-05-01T07:31:00.509Z,39.8
2023-05-01T07:32:00.608Z,39.3
2023-05-01T07:33:00.684Z,38.7
2023-05-01T07:34:00.537Z,39.0
2023-05-01T07:35:00.552Z,39.0
2023-05-01T07:36:00.517Z,38.9
2023-05-01T07:37:00.564Z,39.0
2023-05-01T07:38:00.519Z,37.9
2023-05-01T07:39:00.603Z,38.4
2023-05-01T07:40:00.577Z,37.6
2023-05-01T07:41:00.699Z,37.5
2023-05-01T07:42:00.530Z,37.9
2023-05-01T07:43:00.563Z,38.0
2023-05-01T07:44:00.532Z,37.9
2023-05-01T07:45:00.629Z,37.2
2023-05-01T07:46:00.727Z,37.4
2023-05-01T07:47:02.206Z,37.9
2023-05-01T07:48:00.616Z,37.4
2023-05-01T07:49:00.562Z,37.0
2023-05-01T07:50:00.556Z,37.1
2023-05-01T07:51:00.854Z,36.7
2023-05-01T07:52:00.609Z,36.3
2023-05-01T07:53:00.572Z,36.0
2023-05-01T07:54:00.541Z,36.2
2023-05-01T07:55:00.606Z,35.8
2023-05-01T07:56:08.008Z,35.1
2023-05-01T07:57:00.569Z,35.7
2023-05-01T07:58:00.524Z,34.6
2023-05-01T07:59:00.561Z,34.2
2023-05-01T08:00:00.590Z,33.5
2023-05-01T08:01:00.695Z,33.4
2023-05-01T08:02:00.623Z,34.0
2023-05-01T08:03:01.075Z,33.7
2023-05-01T08:04:00.662Z,33.1
2023-05-01T08:05:00.878Z,33.8
2023-05-01T08:06:00.588Z,34.1
2023-05-01T08:07:00.531Z,34.7
2023-05-01T08:08:00.537Z,33.9
2023-05-01T08:09:00.523Z,33.8
2023-05-01T08:10:01.064Z,34.1
2023-05-01T08:11:00.560Z,34.0
2023-05-01T08:12:00.596Z,34.5
2023-05-01T08:13:00.557Z,34.3
2023-05-01T08:14:00.609Z,34.3
2023-05-01T08:15:00.826Z,34.9
2023-05-01T08:16:01.156Z,34.4
2023-05-01T08:17:00.573Z,33.9
2023-05-01T08:18:00.601Z,33.5
2023-05-01T08:19:00.612Z,33.7
2023-05-01T08:20:00.888Z,34.3
2023-05-01T08:21:00.580Z,34.5
2023-05-01T08:22:00.537Z,35.0
2023-05-01T08:23:00.560Z,34.3
2023-05-01T08:24:00.541Z,34.3
2023-05-01T08:25:00.611Z,34.1
2023-05-01T08:26:00.552Z,34.0
2023-05-01T08:27:00.551Z,33.8
2023-05-01T08:28:00.587Z,33.4
2023-05-01T08:29:00.581Z,33.8
2023-05-01T08:30:00.562Z,34.3
2023-05-01T08:31:00.594Z,34.2
2023-05-01T08:32:00.778Z,34.1
2023-05-01T08:33:00.555Z,33.0
2023-05-01T08:34:00.554Z,33.5
2023-05-01T08:35:00.582Z,34.0
2023-05-01T08:36:00.599Z,33.7
2023-05-01T08:37:00.729Z,34.1
2023-05-01T08:38:00.566Z,33.4
2023-05-01T08:39:00.587Z,33.5
2023-05-01T08:40:00.544Z,33.2
2023-05-01T08:41:00.611Z,33.0
2023-05-01T08:42:01.725Z,33.0
2023-05-01T08:43:00.570Z,32.2
2023-05-01T08:44:00.820Z,31.9
2023-05-01T08:45:01.285Z,32.4
2023-05-01T08:46:00.750Z,33.1
2023-05-01T08:47:10.587Z,33.3
2023-05-01T08:48:03.765Z,32.4
2023-05-01T08:49:03.756Z,31.6
2023-05-01T08:50:00.615Z,31.4
2023-05-01T08:51:02.502Z,32.2
2023-05-01T08:52:01.128Z,32.2
2023-05-01T08:53:01.173Z,32.6
2023-05-01T08:54:00.897Z,32.3
2023-05-01T08:55:01.196Z,32.7
2023-05-01T08:56:04.852Z,33.2
2023-05-01T08:57:01.221Z,33.3
2023-05-01T08:58:01.063Z,32.4
2023-05-01T08:59:02.772Z,32.0
2023-05-01T09:00:00.549Z,32.1
2023-05-01T09:01:00.898Z,32.1
2023-05-01T09:02:01.133Z,32.6
2023-05-01T09:03:00.786Z,32.2
2023-05-01T09:04:01.596Z,32.5
2023-05-01T09:05:01.264Z,32.1
2023-05-01T09:06:01.614Z,32.4
2023-05-01T09:07:00.752Z,32.6
2023-05-01T09:08:00.557Z,32.0
2023-05-01T09:09:00.751Z,32.1
2023-05-01T09:10:00.696Z,31.8
2023-05-01T09:11:02.291Z,31.4
2023-05-01T09:12:10.426Z,32.0
2023-05-01T09:13:01.081Z,32.8
2023-05-01T09:14:00.562Z,32.7
2023-05-01T09:15:01.825Z,33.2
2023-05-01T09:16:00.635Z,33.2
2023-05-01T09:17:00.640Z,33.5
2023-05-01T09:18:03.187Z,32.9
2023-05-01T09:19:00.565Z,32.9
2023-05-01T09:20:01.303Z,32.9
2023-05-01T09:21:00.985Z,32.8
2023-05-01T09:22:00.584Z,33.0
2023-05-01T09:23:00.578Z,33.9
2023-05-01T09:24:00.533Z,34.1
2023-05-01T09:25:00.733Z,33.9
2023-05-01T09:26:03.578Z,34.2
2023-05-01T09:27:00.551Z,34.5
2023-05-01T09:28:03.189Z,34.3
2023-05-01T09:29:00.591Z,34.5
2023-05-01T09:30:00.776Z,33.8
2023-05-01T09:31:10.408Z,34.3
2023-05-01T09:32:10.445Z,34.6
2023-05-01T09:33:08.000Z,34.2
2023-05-01T09:34:01.643Z,34.4
2023-05-01T09:35:09.191Z,34.7
2023-05-01T09:36:00.582Z,34.8
2023-05-01T09:37:00.613Z,34.7
2023-05-01T09:38:00.566Z,34.5
2023-05-01T09:39:00.839Z,34.1
2023-05-01T09:40:10.425Z,33.7
2023-05-01T09:41:04.179Z,34.2
2023-05-01T09:42:00.744Z,34.8
2023-05-01T09:43:00.615Z,34.8
2023-05-01T09:44:00.672Z,34.7
2023-05-01T09:45:01.950Z,34.8
2023-05-01T09:46:00.597Z,34.9
2023-05-01T09:47:00.787Z,35.3
2023-05-01T09:48:08.497Z,35.2
2023-05-01T09:49:01.048Z,35.3
2023-05-01T09:50:00.573Z,35.7
2023-05-01T09:51:00.827Z,35.3
2023-05-01T09:52:10.422Z,35.0
2023-05-01T09:53:00.966Z,35.3
2023-05-01T09:54:02.581Z,35.2
2023-05-01T09:55:10.427Z,35.5
2023-05-01T09:56:00.541Z,35.4
2023-05-01T09:57:00.554Z,35.4
2023-05-01T09:58:00.828Z,34.8
2023-05-01T09:59:10.412Z,34.9
2023-05-01T10:00:01.161Z,34.6
2023-05-01T10:01:00.584Z,35.0
2023-05-01T10:02:00.617Z,34.8
2023-05-01T10:03:10.478Z,34.8
2023-05-01T10:04:00.646Z,34.6
2023-05-01T10:05:00.949Z,34.6
2023-05-01T10:06:00.590Z,34.5
2023-05-01T10:07:10.426Z,34.7
2023-05-01T10:08:01.248Z,35.0
2023-05-01T10:09:00.519Z,35.1
2023-05-01T10:10:10.441Z,35.1
2023-05-01T10:11:02.319Z,34.9
2023-05-01T10:12:00.526Z,35.7
2023-05-01T10:13:10.412Z,35.9
2023-05-01T10:14:08.494Z,35.7
2023-05-01T10:15:05.492Z,35.5
2023-05-01T10:16:00.534Z,34.6
2023-05-01T10:17:06.310Z,34.8
2023-05-01T10:18:00.672Z,33.8
2023-05-01T10:19:02.361Z,34.0
2023-05-01T10:20:00.585Z,34.0
2023-05-01T10:21:00.586Z,33.9
2023-05-01T10:22:00.533Z,34.2
2023-05-01T10:23:01.770Z,34.2
2023-05-01T10:24:01.337Z,34.0
2023-05-01T10:25:00.848Z,34.0
2023-05-01T10:26:02.981Z,34.0
2023-05-01T10:27:00.891Z,34.0
2023-05-01T10:28:02.298Z,33.4
2023-05-01T10:29:00.944Z,33.1
2023-05-01T10:30:01.687Z,33.3
2023-05-01T10:31:01.815Z,33.6
2023-05-01T10:32:01.729Z,33.6
2023-05-01T10:33:01.317Z,33.7
2023-05-01T10:34:00.853Z,33.9
2023-05-01T10:35:04.445Z,33.8
2023-05-01T10:36:01.795Z,33.9
2023-05-01T10:37:03.166Z,34.1
2023-05-01T10:38:01.530Z,34.1
2023-05-01T10:39:00.553Z,33.5
2023-05-01T10:40:10.431Z,33.8
2023-05-01T10:41:00.532Z,33.9
2023-05-01T10:42:01.270Z,33.8
2023-05-01T10:43:10.432Z,34.1
2023-05-01T10:44:10.421Z,34.0
2023-05-01T10:45:10.421Z,33.7
2023-05-01T10:46:07.994Z,33.6
2023-05-01T10:47:10.432Z,33.8
2023-05-01T10:48:00.599Z,32.4
2023-05-01T10:49:00.521Z,32.2
2023-05-01T10:50:09.361Z,32.5
2023-05-01T10:51:06.244Z,32.5
2023-05-01T10:52:00.821Z,32.2
2023-05-01T10:53:10.422Z,32.7
2023-05-01T10:54:10.402Z,32.9
2023-05-01T10:55:10.413Z,33.3
2023-05-01T10:56:00.667Z,34.1
2023-05-01T10:57:01.349Z,34.4
2023-05-01T10:58:00.533Z,33.6
2023-05-01T10:59:01.476Z,33.7
2023-05-01T11:00:00.544Z,34.3
2023-05-01T11:01:10.384Z,35.0
2023-05-01T11:02:10.509Z,35.4
2023-05-01T11:03:10.415Z,35.4
2023-05-01T11:04:03.612Z,35.6
2023-05-01T11:05:00.887Z,35.7
2023-05-01T11:06:01.060Z,35.7
2023-05-01T11:07:00.639Z,35.6
2023-05-01T11:08:10.397Z,35.4
2023-05-01T11:09:00.915Z,34.7
2023-05-01T11:10:00.556Z,35.1
2023-05-01T11:11:10.403Z,35.1
2023-05-01T11:12:00.574Z,35.2
2023-05-01T11:13:00.545Z,36.7
2023-05-01T11:14:04.311Z,37.4
2023-05-01T11:15:00.971Z,37.5
2023-05-01T11:16:10.609Z,36.6
2023-05-01T11:17:00.531Z,36.5
2023-05-01T11:18:01.146Z,36.3
2023-05-01T11:19:00.567Z,35.9
2023-05-01T11:20:00.574Z,35.7
2023-05-01T11:21:00.624Z,35.7
2023-05-01T11:22:00.706Z,36.1
2023-05-01T11:23:00.548Z,36.3
2023-05-01T11:24:00.685Z,35.7
2023-05-01T11:25:00.968Z,35.6
2023-05-01T11:26:01.337Z,35.4
2023-05-01T11:27:00.815Z,34.8
2023-05-01T11:28:01.313Z,34.2
2023-05-01T11:29:00.645Z,33.5
2023-05-01T11:30:00.608Z,33.4
2023-05-01T11:31:00.600Z,33.4
2023-05-01T11:32:00.589Z,33.1
2023-05-01T11:33:00.694Z,33.1
2023-05-01T11:34:00.889Z,32.9
2023-05-01T11:35:00.744Z,33.5
2023-05-01T11:36:01.262Z,33.8
2023-05-01T11:37:00.578Z,33.2
2023-05-01T11:38:00.592Z,33.8
2023-05-01T11:39:00.556Z,34.6
2023-05-01T11:40:02.705Z,35.6
2023-05-01T11:41:01.494Z,36.0
2023-05-01T11:42:05.464Z,36.0
2023-05-01T11:43:02.707Z,35.5
2023-05-01T11:44:00.583Z,34.7
2023-05-01T11:45:08.363Z,34.3
2023-05-01T11:46:00.586Z,33.8
2023-05-01T11:47:00.531Z,33.6
2023-05-01T11:48:03.507Z,32.8
2023-05-01T11:49:00.991Z,32.5
2023-05-01T11:50:01.001Z,32.4
2023-05-01T11:51:10.436Z,31.8
2023-05-01T11:52:00.559Z,31.6
2023-05-01T11:53:01.122Z,31.9
2023-05-01T11:54:03.934Z,33.5
2023-05-01T11:55:01.243Z,34.1
2023-05-01T11:56:00.532Z,34.3
2023-05-01T11:57:01.221Z,33.9
2023-05-01T11:58:00.866Z,34.8
2023-05-01T11:59:10.386Z,34.6
2023-05-01T12:00:00.571Z,34.1
2023-05-01T12:01:00.571Z,34.1
2023-05-01T12:02:00.633Z,33.6
2023-05-01T12:03:02.008Z,33.6
2023-05-01T12:04:01.031Z,33.3
2023-05-01T12:05:10.399Z,32.6
2023-05-01T12:06:00.657Z,33.0
2023-05-01T12:07:00.571Z,32.9
2023-05-01T12:08:07.887Z,32.7
2023-05-01T12:09:00.659Z,32.6
2023-05-01T12:10:00.841Z,32.8
2023-05-01T12:11:00.695Z,33.2
2023-05-01T12:12:00.706Z,33.3
2023-05-01T12:13:02.822Z,33.1
2023-05-01T12:14:00.856Z,35.1
2023-05-01T12:15:00.934Z,35.0
2023-05-01T12:16:00.815Z,35.3
2023-05-01T12:17:00.796Z,37.3
2023-05-01T12:18:00.733Z,37.2
2023-05-01T12:19:01.059Z,38.0
2023-05-01T12:20:00.586Z,37.9
2023-05-01T12:21:00.579Z,37.9
2023-05-01T12:22:04.198Z,38.1
2023-05-01T12:23:01.637Z,36.6
2023-05-01T12:24:07.970Z,36.5
2023-05-01T12:25:00.816Z,36.0
2023-05-01T12:26:00.574Z,36.1
2023-05-01T12:27:00.589Z,36.3
2023-05-01T12:28:01.279Z,36.8
2023-05-01T12:29:01.772Z,37.5
2023-05-01T12:30:00.599Z,37.6
2023-05-01T12:31:03.305Z,39.4
2023-05-01T12:32:00.696Z,40.2
2023-05-01T12:33:06.480Z,40.1
2023-05-01T12:34:01.927Z,41.3
2023-05-01T12:35:10.418Z,41.0
2023-05-01T12:36:08.394Z,40.8
2023-05-01T12:37:00.561Z,39.7
2023-05-01T12:38:08.429Z,38.6
2023-05-01T12:39:05.486Z,37.8
2023-05-01T12:40:00.598Z,36.7
2023-05-01T12:41:00.739Z,36.1
2023-05-01T12:42:00.611Z,36.0
2023-05-01T12:43:00.737Z,36.9
2023-05-01T12:44:00.543Z,37.1
2023-05-01T12:45:01.011Z,37.6
2023-05-01T12:46:01.427Z,36.8
2023-05-01T12:47:01.762Z,37.1
2023-05-01T12:48:00.605Z,36.2
2023-05-01T12:49:00.566Z,35.2
2023-05-01T12:50:01.912Z,34.7
2023-05-01T12:51:00.557Z,34.7
2023-05-01T12:52:00.938Z,34.1
2023-05-01T12:53:01.522Z,34.6
2023-05-01T12:54:00.596Z,35.0
2023-05-01T12:55:01.182Z,35.0
2023-05-01T12:56:00.555Z,35.4
2023-05-01T12:57:05.465Z,35.4
2023-05-01T12:58:00.967Z,35.2
2023-05-01T12:59:00.547Z,35.2
2023-05-01T13:00:02.991Z,35.7
2023-05-01T13:01:00.721Z,36.7
2023-05-01T13:02:01.721Z,37.2
2023-05-01T13:03:02.366Z,37.4
2023-05-01T13:04:00.624Z,37.7
2023-05-01T13:05:09.134Z,38.6
2023-05-01T13:06:01.676Z,38.1
2023-05-01T13:07:00.768Z,38.7
2023-05-01T13:08:00.585Z,38.6
2023-05-01T13:09:09.491Z,38.2
2023-05-01T13:10:01.194Z,37.9
2023-05-01T13:11:01.357Z,38.3
2023-05-01T13:12:02.784Z,38.3
2023-05-01T13:13:00.543Z,38.7
2023-05-01T13:14:05.822Z,39.8
2023-05-01T13:15:00.820Z,41.1
2023-05-01T13:16:10.605Z,41.9
2023-05-01T13:17:00.563Z,41.8
2023-05-01T13:18:04.272Z,41.9